createdAt,value
2024-03-08T00:00:28.189Z,31.80
2024-03-08T00:01:29.810Z,30.70
2024-03-08T00:02:31.434Z,31.92
2024-03-08T00:03:33.798Z,31.85
2024-03-08T00:04:35.340Z,31.50
2024-03-08T00:05:39.693Z,31.45
2024-03-08T00:06:41.764Z,31.67
2024-03-08T00:07:44.359Z,31.77
2024-03-08T00:08:46.072Z,32.30
2024-03-08T00:09:47.672Z,32.45
2024-03-08T00:10:49.331Z,31.33
2024-03-08T00:11:51.555Z,32.38
2024-03-08T00:12:54.646Z,32.15
2024-03-08T00:13:56.491Z,31.88
2024-03-08T00:14:58.225Z,32.55
2024-03-08T00:15:59.776Z,33.30
2024-03-08T00:17:01.391Z,33.05
2024-03-08T00:18:03.003Z,32.67
2024-03-08T00:19:04.628Z,32.13
2024-03-08T00:20:09.357Z,31.92
2024-03-08T00:21:11.446Z,31.75
2024-03-08T00:22:13.019Z,32.25
2024-03-08T00:23:14.575Z,32.35
2024-03-08T00:24:16.165Z,32.83
2024-03-08T00:25:17.803Z,31.73
2024-03-08T00:26:19.655Z,36.55
2024-03-08T00:27:22.268Z,33.10
2024-03-08T00:28:26.164Z,34.38
2024-03-08T00:29:28.716Z,31.85
2024-03-08T00:30:30.397Z,32.38
2024-03-08T00:31:35.113Z,30.50
2024-03-08T00:32:38.359Z,30.38
2024-03-08T00:33:41.051Z,32.05
2024-03-08T00:34:42.694Z,31.75
2024-03-08T00:35:44.340Z,31.75
2024-03-08T00:36:46.028Z,33.13
2024-03-08T00:37:50.367Z,31.20
2024-03-08T00:38:51.966Z,31.83
2024-03-08T00:39:54.216Z,32.35
2024-03-08T00:40:57.049Z,33.15
2024-03-08T00:41:58.649Z,32.80
2024-03-08T00:43:00.247Z,32.53
2024-03-08T00:44:01.839Z,34.53
2024-03-08T00:45:04.086Z,33.83
2024-03-08T00:46:05.827Z,34.00
2024-03-08T00:47:07.441Z,33.15
2024-03-08T00:48:09.529Z,36.60
2024-03-08T00:49:11.102Z,32.88
2024-03-08T00:50:14.142Z,32.88
2024-03-08T00:51:18.325Z,34.85
2024-03-08T00:52:20.386Z,34.97
2024-03-08T00:53:22.057Z,34.95
2024-03-08T00:54:23.599Z,33.88
2024-03-08T00:55:25.168Z,35.28
2024-03-08T00:56:26.752Z,35.65
2024-03-08T00:57:29.137Z,35.00
2024-03-08T00:58:31.748Z,39.20
2024-03-08T00:59:36.511Z,35.75
2024-03-08T01:00:39.971Z,36.28
2024-03-08T01:01:45.255Z,35.83
2024-03-08T01:02:46.888Z,34.85
2024-03-08T01:03:49.803Z,37.38
2024-03-08T01:04:51.518Z,36.50
2024-03-08T01:05:53.099Z,37.25
2024-03-08T01:06:54.656Z,36.80
2024-03-08T01:07:56.188Z,35.50
2024-03-08T01:08:57.818Z,37.53
2024-03-08T01:09:59.685Z,37.67
2024-03-08T01:11:01.315Z,36.83
2024-03-08T01:12:02.985Z,36.90
2024-03-08T01:13:04.808Z,37.17
2024-03-08T01:14:06.593Z,37.55
2024-03-08T01:15:08.603Z,36.75
2024-03-08T01:16:12.535Z,39.25
2024-03-08T01:17:15.502Z,39.85
2024-03-08T01:18:17.251Z,39.40
2024-03-08T01:19:19.005Z,42.55
2024-03-08T01:20:20.802Z,41.30
2024-03-08T01:21:23.464Z,43.53
2024-03-08T01:22:25.048Z,43.83
2024-03-08T01:23:26.823Z,44.65
2024-03-08T01:24:28.367Z,42.17
2024-03-08T01:25:29.964Z,38.63
2024-03-08T01:26:31.841Z,39.97
2024-03-08T01:27:33.609Z,41.70
2024-03-08T01:28:35.583Z,39.95
2024-03-08T01:29:37.214Z,38.97
2024-03-08T01:30:39.737Z,38.78
2024-03-08T01:31:41.305Z,37.33
2024-03-08T01:32:43.768Z,37.33
2024-03-08T01:33:45.438Z,39.40
2024-03-08T01:34:47.087Z,39.70
2024-03-08T01:35:49.098Z,38.95
2024-03-08T01:36:50.716Z,36.78
2024-03-08T01:37:52.256Z,38.35
2024-03-08T01:38:54.014Z,40.13
2024-03-08T01:39:55.580Z,37.67
2024-03-08T01:40:57.450Z,40.53
2024-03-08T01:41:59.570Z,39.65
2024-03-08T01:43:36.959Z,37.90
2024-03-08T01:44:38.531Z,39.95
2024-03-08T01:45:40.048Z,39.13
2024-03-08T01:46:41.622Z,38.90
2024-03-08T01:47:43.297Z,38.15
2024-03-08T01:48:45.609Z,37.55
2024-03-08T01:49:47.369Z,37.90
2024-03-08T01:50:49.070Z,36.78
2024-03-08T01:51:50.986Z,38.33
2024-03-08T01:52:53.485Z,37.00
2024-03-08T01:53:56.996Z,37.90
2024-03-08T01:55:02.060Z,35.45
2024-03-08T01:56:04.095Z,37.75
2024-03-08T01:57:05.920Z,39.70
2024-03-08T01:58:08.182Z,39.55
2024-03-08T01:59:10.176Z,39.00
2024-03-08T02:00:12.978Z,37.75
2024-03-08T02:01:17.940Z,38.55
2024-03-08T02:02:20.999Z,38.38
2024-03-08T02:03:23.552Z,36.35
2024-03-08T02:04:25.568Z,36.65
2024-03-08T02:05:27.391Z,39.22
2024-03-08T02:06:28.964Z,39.28
2024-03-08T02:07:30.483Z,37.20
2024-03-08T02:08:32.770Z,39.13
2024-03-08T02:09:34.419Z,40.65
2024-03-08T02:10:36.017Z,39.88
2024-03-08T02:11:38.296Z,42.35
2024-03-08T02:12:40.355Z,40.28
2024-03-08T02:13:42.385Z,39.97
2024-03-08T02:14:45.232Z,37.05
2024-03-08T02:16:01.451Z,40.58
2024-03-08T02:17:03.608Z,38.95
2024-03-08T02:18:05.806Z,40.60
2024-03-08T02:19:10.819Z,43.30
2024-03-08T02:20:14.639Z,43.83
2024-03-08T02:21:22.069Z,42.97
2024-03-08T02:22:23.755Z,42.67
2024-03-08T02:23:26.101Z,44.85
2024-03-08T02:24:27.722Z,43.63
2024-03-08T02:25:29.628Z,45.78
2024-03-08T02:26:31.236Z,43.67
2024-03-08T02:27:32.887Z,43.97
2024-03-08T02:28:35.200Z,43.22
2024-03-08T02:29:37.855Z,41.08
2024-03-08T02:30:39.945Z,44.00
2024-03-08T02:31:41.469Z,43.28
2024-03-08T02:32:43.108Z,43.70
2024-03-08T02:33:44.880Z,43.67
2024-03-08T02:34:46.503Z,42.70
2024-03-08T02:35:49.320Z,43.47
2024-03-08T02:36:50.878Z,46.20
2024-03-08T02:37:52.429Z,45.55
2024-03-08T02:38:54.017Z,44.53
2024-03-08T02:39:56.407Z,43.78
2024-03-08T02:40:58.016Z,42.28
2024-03-08T02:41:59.620Z,44.17
2024-03-08T02:43:01.244Z,43.20
2024-03-08T02:44:02.843Z,42.25
2024-03-08T02:45:06.835Z,43.05
2024-03-08T02:46:08.474Z,44.20
2024-03-08T02:47:10.089Z,44.13
2024-03-08T02:48:12.391Z,45.15
2024-03-08T02:49:13.994Z,44.13
2024-03-08T02:50:17.429Z,45.40
2024-03-08T02:51:19.198Z,43.42
2024-03-08T02:52:22.464Z,42.20
2024-03-08T02:53:25.821Z,41.55
2024-03-08T02:54:27.398Z,41.33
2024-03-08T02:55:29.044Z,42.80
2024-03-08T02:56:31.407Z,42.42
2024-03-08T02:57:33.266Z,42.05
2024-03-08T02:58:34.813Z,41.55
2024-03-08T02:59:36.421Z,40.38
2024-03-08T03:00:40.067Z,43.50
2024-03-08T03:01:42.427Z,41.03
2024-03-08T03:02:44.071Z,40.30
2024-03-08T03:03:45.661Z,41.38
2024-03-08T03:04:47.157Z,41.08
2024-03-08T03:05:49.598Z,41.17
2024-03-08T03:06:51.992Z,40.85
2024-03-08T03:07:53.582Z,40.88
2024-03-08T03:08:55.179Z,41.08
2024-03-08T03:09:56.943Z,41.10
2024-03-08T03:10:58.570Z,42.22
2024-03-08T03:12:00.690Z,43.38
2024-03-08T03:13:02.252Z,41.38
2024-03-08T03:14:03.786Z,41.30
2024-03-08T03:15:06.234Z,39.15
2024-03-08T03:16:08.464Z,41.08
2024-03-08T03:17:11.183Z,41.10
2024-03-08T03:18:13.049Z,38.95
2024-03-08T03:19:16.206Z,38.63
2024-03-08T03:20:27.176Z,40.00
2024-03-08T03:21:32.859Z,40.50
2024-03-08T03:22:35.950Z,41.03
2024-03-08T03:23:38.320Z,38.47
2024-03-08T03:24:41.191Z,39.22
2024-03-08T03:25:42.931Z,37.17
2024-03-08T03:26:44.949Z,37.38
2024-03-08T03:27:47.514Z,37.75
2024-03-08T03:28:49.397Z,35.95
2024-03-08T03:29:52.014Z,37.38
2024-03-08T03:30:54.167Z,38.58
2024-03-08T03:31:55.701Z,37.20
2024-03-08T03:33:00.116Z,39.78
2024-03-08T03:34:05.107Z,37.42
2024-03-08T03:35:07.041Z,36.20
2024-03-08T03:36:11.178Z,36.72
2024-03-08T03:37:13.723Z,37.85
2024-03-08T03:38:15.536Z,37.85
2024-03-08T03:39:17.865Z,37.53
2024-03-08T03:40:20.664Z,36.42
2024-03-08T03:41:22.234Z,38.35
2024-03-08T03:42:25.077Z,37.92
2024-03-08T03:43:27.088Z,37.47
2024-03-08T03:44:29.594Z,37.05
2024-03-08T03:45:36.450Z,37.25
2024-03-08T03:46:38.872Z,36.85
2024-03-08T03:47:40.454Z,37.13
2024-03-08T03:48:43.536Z,35.00
2024-03-08T03:49:46.174Z,35.08
2024-03-08T03:50:47.913Z,36.78
2024-03-08T03:51:49.478Z,36.50
2024-03-08T03:52:51.020Z,35.90
2024-03-08T03:53:53.882Z,36.03
2024-03-08T03:54:55.507Z,37.22
2024-03-08T03:55:57.805Z,35.25
2024-03-08T03:56:59.608Z,35.72
2024-03-08T03:58:02.381Z,40.45
2024-03-08T03:59:04.018Z,40.42
2024-03-08T04:00:07.469Z,35.33
2024-03-08T04:01:10.829Z,30.73
2024-03-08T04:02:12.373Z,32.10
2024-03-08T04:03:14.017Z,34.28
2024-03-08T04:04:15.599Z,30.45
2024-03-08T04:05:17.139Z,32.10
2024-03-08T04:06:18.733Z,32.35
2024-03-08T04:07:20.301Z,31.90
2024-03-08T04:08:22.008Z,31.73
2024-03-08T04:09:23.547Z,32.78
2024-03-08T04:10:25.375Z,34.20
2024-03-08T04:11:27.066Z,32.85
2024-03-08T04:12:30.328Z,32.78
2024-03-08T04:13:31.928Z,32.17
2024-03-08T04:14:34.168Z,32.83
2024-03-08T04:15:35.755Z,32.08
2024-03-08T04:16:38.332Z,32.35
2024-03-08T04:17:40.036Z,33.78
2024-03-08T04:18:41.916Z,35.88
2024-03-08T04:19:43.709Z,34.25
2024-03-08T04:20:45.326Z,32.63
2024-03-08T04:21:46.922Z,33.60
2024-03-08T04:22:50.577Z,33.42
2024-03-08T04:23:52.838Z,34.50
2024-03-08T04:24:54.415Z,34.88
2024-03-08T04:25:55.966Z,34.50
2024-03-08T04:26:57.867Z,37.78
2024-03-08T04:27:59.517Z,37.75
2024-03-08T04:29:01.066Z,37.22
2024-03-08T04:30:08.867Z,36.97
2024-03-08T04:31:11.791Z,38.28
2024-03-08T04:32:14.661Z,38.47
2024-03-08T04:33:17.697Z,39.10
2024-03-08T04:34:19.367Z,40.55
2024-03-08T04:35:21.942Z,40.70
2024-03-08T04:36:24.480Z,42.47
2024-03-08T04:37:26.456Z,41.47
2024-03-08T04:38:28.191Z,39.30
2024-03-08T04:39:30.071Z,39.88
2024-03-08T04:40:32.434Z,40.05
2024-03-08T04:41:35.322Z,40.85
2024-03-08T04:42:40.193Z,38.42
2024-03-08T04:43:41.746Z,39.95
2024-03-08T04:44:43.281Z,42.60
2024-03-08T04:45:45.145Z,41.42
2024-03-08T04:46:47.998Z,40.83
2024-03-08T04:47:49.779Z,41.85
2024-03-08T04:48:51.620Z,39.83
2024-03-08T04:49:54.323Z,38.65
2024-03-08T04:50:56.992Z,40.72
2024-03-08T04:51:58.635Z,40.40
2024-03-08T04:53:00.166Z,41.05
2024-03-08T04:54:01.804Z,39.88
2024-03-08T04:55:06.242Z,40.97
2024-03-08T04:56:08.375Z,42.47
2024-03-08T04:57:10.238Z,41.05
2024-03-08T04:58:11.803Z,39.92
2024-03-08T04:59:13.454Z,39.15
2024-03-08T05:00:16.252Z,40.90
2024-03-08T05:01:18.301Z,39.10
2024-03-08T05:02:19.829Z,39.38
2024-03-08T05:03:22.425Z,40.05
2024-03-08T05:04:23.935Z,39.53
2024-03-08T05:05:27.285Z,40.55
2024-03-08T05:06:30.065Z,37.67
2024-03-08T05:07:31.663Z,40.40
2024-03-08T05:08:34.234Z,40.20
2024-03-08T05:09:37.385Z,39.53
2024-03-08T05:10:39.016Z,37.60
2024-03-08T05:11:48.127Z,39.15
2024-03-08T05:12:50.498Z,38.60
2024-03-08T05:13:52.046Z,38.00
2024-03-08T05:14:53.608Z,38.85
2024-03-08T05:15:55.336Z,38.28
2024-03-08T05:16:57.128Z,38.50
2024-03-08T05:17:59.263Z,38.65
2024-03-08T05:19:01.048Z,39.78
2024-03-08T05:20:03.067Z,38.47
2024-03-08T05:21:05.263Z,38.92
2024-03-08T05:22:06.816Z,40.03
2024-03-08T05:23:09.434Z,41.05
2024-03-08T05:24:11.467Z,41.10
2024-03-08T05:25:13.443Z,40.72
2024-03-08T05:27:17.533Z,40.15
2024-03-08T05:28:19.081Z,39.60
2024-03-08T05:29:20.685Z,39.83
2024-03-08T05:30:23.022Z,40.10
2024-03-08T05:31:24.676Z,38.05
2024-03-08T05:32:27.280Z,38.17
2024-03-08T05:33:29.704Z,41.05
2024-03-08T05:34:31.494Z,37.92
2024-03-08T05:35:33.740Z,37.83
2024-03-08T05:36:36.067Z,37.22
2024-03-08T05:37:37.874Z,38.35
2024-03-08T05:38:39.459Z,38.57
2024-03-08T05:39:42.141Z,39.60
2024-03-08T05:40:44.514Z,37.72
2024-03-08T05:41:47.011Z,36.75
2024-03-08T05:42:48.594Z,37.88
2024-03-08T05:43:50.164Z,39.58
2024-03-08T05:44:51.733Z,37.28
2024-03-08T05:45:53.349Z,38.13
2024-03-08T05:46:54.916Z,40.70
2024-03-08T05:47:56.680Z,38.35
2024-03-08T05:48:59.979Z,38.47
2024-03-08T05:50:01.608Z,39.53
2024-03-08T05:51:03.347Z,37.05
2024-03-08T05:52:05.796Z,37.88
2024-03-08T05:53:07.755Z,38.80
2024-03-08T05:54:12.120Z,38.10
2024-03-08T05:55:15.564Z,36.92
2024-03-08T05:56:17.438Z,39.30
2024-03-08T05:57:19.321Z,37.15
2024-03-08T05:58:20.899Z,38.20
2024-03-08T05:59:24.560Z,38.42
2024-03-08T06:00:27.406Z,38.45
2024-03-08T06:01:29.714Z,38.05
2024-03-08T06:02:31.270Z,36.80
2024-03-08T06:03:32.839Z,36.20
2024-03-08T06:04:34.395Z,36.78
2024-03-08T06:05:36.015Z,38.08
2024-03-08T06:06:38.955Z,38.13
2024-03-08T06:07:41.765Z,35.03
2024-03-08T06:08:44.700Z,38.33
2024-03-08T06:09:49.311Z,38.67
2024-03-08T06:10:53.809Z,37.78
2024-03-08T06:11:56.211Z,38.92
2024-03-08T06:12:57.907Z,38.40
2024-03-08T06:14:01.393Z,37.78
2024-03-08T06:15:03.468Z,38.58
2024-03-08T06:16:05.801Z,38.35
2024-03-08T06:17:08.358Z,38.25
2024-03-08T06:18:13.066Z,38.60
2024-03-08T06:19:14.859Z,40.20
2024-03-08T06:20:16.651Z,41.05
2024-03-08T06:21:18.188Z,41.17
2024-03-08T06:22:21.004Z,36.35
2024-03-08T06:23:22.960Z,39.97
2024-03-08T06:24:24.637Z,38.33
2024-03-08T06:25:26.226Z,38.17
2024-03-08T06:26:31.559Z,37.58
2024-03-08T06:27:35.115Z,37.75
2024-03-08T06:28:36.813Z,39.28
2024-03-08T06:29:38.463Z,38.65
2024-03-08T06:30:40.049Z,38.72
2024-03-08T06:31:41.702Z,40.22
2024-03-08T06:32:44.548Z,39.33
2024-03-08T06:33:46.764Z,41.53
2024-03-08T06:34:48.375Z,41.15
2024-03-08T06:35:49.914Z,41.05
2024-03-08T06:36:53.624Z,39.53
2024-03-08T06:37:55.420Z,39.70
2024-03-08T06:38:58.195Z,40.20
2024-03-08T06:39:59.919Z,40.60
2024-03-08T06:41:04.205Z,40.72
2024-03-08T06:42:06.137Z,40.95
2024-03-08T06:43:08.061Z,39.88
2024-03-08T06:44:10.239Z,41.47
2024-03-08T06:45:13.621Z,38.92
2024-03-08T06:46:21.910Z,40.40
2024-03-08T06:47:26.875Z,40.00
2024-03-08T06:48:28.608Z,37.65
2024-03-08T06:49:30.673Z,42.13
2024-03-08T06:50:33.287Z,40.10
2024-03-08T06:51:34.877Z,39.90
2024-03-08T06:52:36.416Z,39.47
2024-03-08T06:53:39.946Z,39.30
2024-03-08T06:54:41.971Z,41.13
2024-03-08T06:55:43.688Z,40.78
2024-03-08T06:56:45.306Z,38.38
2024-03-08T06:57:46.915Z,40.05
2024-03-08T06:58:49.054Z,39.10
2024-03-08T06:59:50.706Z,40.75
2024-03-08T07:00:53.391Z,40.33
2024-03-08T07:01:55.454Z,41.72
2024-03-08T07:03:01.963Z,38.60
2024-03-08T07:04:06.415Z,38.78
2024-03-08T07:05:11.607Z,38.50
2024-03-08T07:06:13.758Z,38.05
2024-03-08T07:07:16.168Z,37.67
2024-03-08T07:08:17.878Z,38.58
2024-03-08T07:09:19.562Z,39.28
2024-03-08T07:10:27.177Z,38.35
2024-03-08T07:11:28.844Z,38.53
2024-03-08T07:12:30.483Z,37.35
2024-03-08T07:13:32.736Z,38.17
2024-03-08T07:14:34.356Z,36.55
2024-03-08T07:15:36.687Z,40.10
2024-03-08T07:16:38.224Z,38.15
2024-03-08T07:17:40.609Z,38.92
2024-03-08T07:18:44.730Z,37.50
2024-03-08T07:19:46.541Z,39.67
2024-03-08T07:20:48.181Z,39.78
2024-03-08T07:21:49.754Z,38.30
2024-03-08T07:22:54.126Z,36.55
2024-03-08T07:24:01.580Z,35.72
2024-03-08T07:25:21.007Z,37.00
2024-03-08T07:26:22.674Z,36.35
2024-03-08T07:27:24.461Z,38.40
2024-03-08T07:28:26.030Z,37.47
2024-03-08T07:29:27.608Z,39.13
2024-03-08T07:30:44.769Z,37.35
2024-03-08T07:31:52.199Z,35.08
2024-03-08T07:32:53.879Z,37.60
2024-03-08T07:33:55.536Z,36.67
2024-03-08T07:34:57.366Z,38.13
2024-03-08T07:35:59.040Z,37.90
2024-03-08T07:37:00.738Z,38.63
2024-03-08T07:38:03.663Z,37.47
2024-03-08T07:39:10.450Z,38.78
2024-03-08T07:40:14.915Z,37.67
2024-03-08T07:41:17.525Z,37.90
2024-03-08T07:42:19.108Z,37.55
2024-03-08T07:43:20.631Z,36.63
2024-03-08T07:44:22.245Z,36.90
2024-03-08T07:45:23.858Z,35.72
2024-03-08T07:46:25.412Z,37.42
2024-03-08T07:47:27.611Z,38.10
2024-03-08T07:48:29.530Z,36.63
2024-03-08T07:49:31.325Z,37.92
2024-03-08T07:50:34.384Z,36.05
2024-03-08T07:51:36.130Z,37.90
2024-03-08T07:52:38.058Z,38.03
2024-03-08T07:53:39.693Z,41.83
2024-03-08T07:54:41.312Z,39.53
2024-03-08T07:55:44.004Z,38.75
2024-03-08T07:56:45.869Z,40.75
2024-03-08T07:57:48.789Z,39.50
2024-03-08T07:58:50.380Z,38.03
2024-03-08T07:59:51.928Z,40.28
2024-03-08T08:00:53.498Z,41.85
2024-03-08T08:01:55.375Z,40.38
2024-03-08T08:02:57.090Z,40.15
2024-03-08T08:03:58.682Z,44.28
2024-03-08T08:05:00.522Z,41.30
2024-03-08T08:06:02.609Z,42.40
2024-03-08T08:07:04.402Z,38.53
2024-03-08T08:08:07.862Z,39.42
2024-03-08T08:09:29.189Z,38.30
2024-03-08T08:10:30.796Z,37.03
2024-03-08T08:11:33.709Z,40.00
2024-03-08T08:12:35.275Z,37.50
2024-03-08T08:13:37.660Z,38.42
2024-03-08T08:14:42.492Z,39.03
2024-03-08T08:15:44.076Z,36.55
2024-03-08T08:16:46.367Z,35.13
2024-03-08T08:17:52.981Z,35.75
2024-03-08T08:18:55.664Z,38.20
2024-03-08T08:19:57.261Z,38.13
2024-03-08T08:20:58.762Z,36.47
2024-03-08T08:22:00.338Z,39.67
2024-03-08T08:23:02.123Z,45.45
2024-03-08T08:24:07.474Z,38.28
2024-03-08T08:25:09.406Z,38.17
2024-03-08T08:26:12.399Z,42.80
2024-03-08T08:27:15.484Z,40.53
2024-03-08T08:28:20.151Z,37.67
2024-03-08T08:29:21.753Z,36.50
2024-03-08T08:30:23.631Z,37.00
2024-03-08T08:31:25.161Z,35.85
2024-03-08T08:32:27.677Z,34.38
2024-03-08T08:33:29.348Z,35.28
2024-03-08T08:34:31.379Z,35.83
2024-03-08T08:35:34.031Z,34.55
2024-03-08T08:36:36.343Z,36.00
2024-03-08T08:37:40.150Z,35.58
2024-03-08T08:38:45.189Z,34.53
2024-03-08T08:39:50.780Z,33.80
2024-03-08T08:40:53.683Z,34.15
2024-03-08T08:41:56.480Z,31.17
2024-03-08T08:43:01.169Z,31.65
2024-03-08T08:44:09.139Z,31.33
2024-03-08T08:45:23.188Z,31.15
2024-03-08T08:46:27.344Z,31.48
2024-03-08T08:47:29.444Z,31.20
2024-03-08T08:48:31.906Z,30.40
2024-03-08T08:49:33.522Z,32.25
2024-03-08T08:50:35.487Z,30.77
2024-03-08T08:51:37.834Z,31.05
2024-03-08T08:52:40.924Z,30.50
2024-03-08T08:53:48.772Z,29.67
2024-03-08T08:54:51.033Z,29.92
2024-03-08T08:55:54.412Z,30.15
2024-03-08T08:56:56.112Z,30.60
2024-03-08T08:57:58.104Z,29.48
2024-03-08T08:58:59.780Z,27.90
2024-03-08T09:00:01.648Z,30.27
2024-03-08T09:01:03.346Z,31.73
2024-03-08T09:02:05.108Z,33.25
2024-03-08T09:03:08.151Z,33.35
2024-03-08T09:04:09.737Z,31.10
2024-03-08T09:05:12.863Z,33.55
2024-03-08T09:06:14.844Z,29.92
2024-03-08T09:07:17.475Z,30.35
2024-03-08T09:08:19.231Z,30.15
2024-03-08T09:09:20.933Z,29.88
2024-03-08T09:10:22.831Z,30.15
2024-03-08T09:11:26.422Z,27.90
2024-03-08T09:12:28.133Z,28.77
2024-03-08T09:13:31.942Z,30.13
2024-03-08T09:14:35.725Z,26.48
2024-03-08T09:15:37.406Z,27.98
2024-03-08T09:16:39.114Z,28.70
2024-03-08T09:17:41.855Z,26.30
2024-03-08T09:18:44.157Z,29.60
2024-03-08T09:19:46.057Z,29.52
2024-03-08T09:20:48.243Z,30.13
2024-03-08T09:21:49.806Z,27.70
2024-03-08T09:22:51.450Z,28.42
2024-03-08T09:23:53.033Z,27.25
2024-03-08T09:24:54.536Z,27.92
2024-03-08T09:25:56.199Z,27.48
2024-03-08T09:26:59.772Z,26.60
2024-03-08T09:28:01.350Z,26.50
2024-03-08T09:29:02.935Z,26.88
2024-03-08T09:30:05.415Z,25.92
2024-03-08T09:31:07.001Z,26.27
2024-03-08T09:32:08.974Z,24.35
2024-03-08T09:33:10.951Z,25.15
2024-03-08T09:34:17.413Z,25.70
2024-03-08T09:35:22.070Z,27.10
2024-03-08T09:36:23.679Z,28.08
2024-03-08T09:37:25.228Z,25.20
2024-03-08T09:38:26.805Z,26.48
2024-03-08T09:39:30.045Z,25.63
2024-03-08T09:40:33.570Z,25.85
2024-03-08T09:41:35.257Z,26.98
2024-03-08T09:42:39.668Z,26.23
2024-03-08T09:43:41.557Z,27.92
2024-03-08T09:44:47.247Z,27.15
2024-03-08T09:45:50.815Z,27.60
2024-03-08T09:46:54.221Z,26.13
2024-03-08T09:47:56.096Z,24.10
2024-03-08T09:48:58.092Z,24.13
2024-03-08T09:49:59.789Z,24.92
2024-03-08T09:51:01.945Z,24.48
2024-03-08T09:52:06.117Z,23.95
2024-03-08T09:53:11.246Z,24.27
2024-03-08T09:54:23.201Z,25.02
2024-03-08T09:55:27.104Z,25.70
2024-03-08T09:56:29.023Z,23.27
2024-03-08T09:57:30.689Z,22.85
2024-03-08T09:58:43.634Z,23.35
2024-03-08T09:59:48.208Z,21.73
2024-03-08T10:00:49.786Z,23.58
2024-03-08T10:01:53.198Z,23.90
2024-03-08T10:02:55.261Z,21.83
2024-03-08T10:03:58.526Z,23.17
2024-03-08T10:05:00.127Z,23.35
2024-03-08T10:06:01.835Z,23.48
2024-03-08T10:07:03.491Z,22.63
2024-03-08T10:08:07.799Z,21.75
2024-03-08T10:09:11.600Z,22.88
2024-03-08T10:10:13.600Z,21.08
2024-03-08T10:11:15.337Z,19.70
2024-03-08T10:12:18.296Z,21.95
2024-03-08T10:13:21.034Z,21.23
2024-03-08T10:14:22.848Z,21.58
2024-03-08T10:15:31.021Z,21.08
2024-03-08T10:16:32.677Z,20.10
2024-03-08T10:17:36.375Z,20.83
2024-03-08T10:18:38.198Z,20.17
2024-03-08T10:19:40.327Z,19.85
2024-03-08T10:20:42.228Z,18.17
2024-03-08T10:21:55.066Z,18.73
2024-03-08T10:23:03.094Z,18.52
2024-03-08T10:24:11.996Z,18.63
2024-03-08T10:25:14.653Z,19.23
2024-03-08T10:26:19.158Z,18.52
2024-03-08T10:27:20.733Z,19.40
2024-03-08T10:28:23.665Z,17.48
2024-03-08T10:29:25.457Z,17.52
2024-03-08T10:30:26.999Z,17.77
2024-03-08T10:31:28.700Z,18.60
2024-03-08T10:32:30.265Z,18.88
2024-03-08T10:33:31.879Z,17.83
2024-03-08T10:34:33.423Z,17.08
2024-03-08T10:35:35.365Z,17.40
2024-03-08T10:36:39.106Z,17.70
2024-03-08T10:37:48.822Z,17.00
2024-03-08T10:38:54.582Z,16.05
2024-03-08T10:40:12.254Z,17.08
2024-03-08T10:41:14.821Z,16.88
2024-03-08T10:42:20.495Z,17.00
2024-03-08T10:43:28.546Z,16.20
2024-03-08T10:44:30.505Z,16.25
2024-03-08T10:45:39.235Z,16.38
2024-03-08T10:46:49.971Z,14.77
2024-03-08T10:48:00.685Z,17.33
2024-03-08T10:49:09.052Z,15.48
2024-03-08T10:50:23.448Z,15.63
2024-03-08T10:51:26.881Z,15.25
2024-03-08T10:52:28.609Z,16.35
2024-03-08T10:53:30.709Z,17.60
2024-03-08T10:54:33.672Z,17.58
2024-03-08T10:55:40.641Z,17.30
2024-03-08T10:56:42.297Z,17.27
2024-03-08T10:57:44.283Z,16.88
2024-03-08T10:58:47.261Z,16.10
2024-03-08T10:59:51.163Z,15.27
2024-03-08T11:00:54.946Z,16.25
2024-03-08T11:01:56.743Z,16.45
2024-03-08T11:02:58.408Z,15.88
2024-03-08T11:03:59.960Z,16.15
2024-03-08T11:05:05.016Z,15.20
2024-03-08T11:06:10.605Z,16.88
2024-03-08T11:07:18.432Z,16.35
2024-03-08T11:08:20.376Z,16.85
2024-03-08T11:09:36.693Z,15.23
2024-03-08T11:10:57.148Z,14.45
2024-03-08T11:12:21.881Z,15.13
2024-03-08T11:13:46.893Z,14.75
2024-03-08T11:14:53.203Z,15.00
2024-03-08T11:15:55.209Z,15.52
2024-03-08T11:16:56.865Z,15.27
2024-03-08T11:18:01.484Z,15.90
2024-03-08T11:19:27.154Z,15.55
2024-03-08T11:20:29.122Z,15.80
2024-03-08T11:21:32.570Z,13.57
2024-03-08T11:22:35.179Z,13.27
2024-03-08T11:23:36.862Z,12.50
2024-03-08T11:24:41.322Z,12.48
2024-03-08T11:25:45.539Z,13.43
2024-03-08T11:26:47.874Z,12.13
2024-03-08T11:28:07.025Z,11.07
2024-03-08T11:29:36.373Z,12.55
2024-03-08T11:30:39.698Z,12.93
2024-03-08T11:31:42.273Z,12.82
2024-03-08T11:32:49.922Z,14.70
2024-03-08T11:33:53.227Z,15.95
2024-03-08T11:34:55.079Z,14.43
2024-03-08T11:36:26.969Z,14.48
2024-03-08T11:37:31.395Z,14.50
2024-03-08T11:38:34.445Z,13.82
2024-03-08T11:39:38.249Z,12.40
2024-03-08T11:40:41.154Z,12.43
2024-03-08T11:41:46.474Z,12.60
2024-03-08T11:42:49.632Z,12.20
2024-03-08T11:44:06.248Z,13.55
2024-03-08T11:45:12.539Z,13.77
2024-03-08T11:46:19.023Z,14.85
2024-03-08T11:47:21.880Z,15.15
2024-03-08T11:48:24.379Z,15.15
2024-03-08T11:49:26.592Z,15.55
2024-03-08T11:50:28.647Z,12.55
2024-03-08T11:51:31.279Z,12.75
2024-03-08T11:52:32.877Z,11.52
2024-03-08T11:53:34.564Z,11.52
2024-03-08T11:54:37.304Z,11.13
2024-03-08T11:55:39.192Z,9.98
2024-03-08T11:56:42.760Z,12.23
2024-03-08T11:57:44.904Z,12.63
2024-03-08T11:58:55.557Z,13.35
2024-03-08T11:59:58.273Z,13.27
2024-03-08T12:01:07.115Z,11.48
2024-03-08T12:02:12.208Z,12.82
2024-03-08T12:03:14.075Z,12.10
2024-03-08T12:04:15.737Z,12.25
2024-03-08T12:05:17.659Z,11.15
2024-03-08T12:06:19.395Z,12.52
2024-03-08T12:07:21.103Z,11.38
2024-03-08T12:08:22.648Z,13.20
2024-03-08T12:09:24.259Z,13.13
2024-03-08T12:10:26.298Z,11.65
2024-03-08T12:11:29.927Z,10.63
2024-03-08T12:12:33.823Z,9.52
2024-03-08T12:13:36.037Z,8.13
2024-03-08T12:14:38.252Z,10.18
2024-03-08T12:15:40.675Z,9.30
2024-03-08T12:16:43.841Z,8.38
2024-03-08T12:17:49.316Z,9.25
2024-03-08T12:18:53.182Z,11.25
2024-03-08T12:19:55.841Z,10.95
2024-03-08T12:21:11.807Z,12.18
2024-03-08T12:22:16.579Z,12.88
2024-03-08T12:23:18.331Z,12.25
2024-03-08T12:24:20.466Z,11.70
2024-03-08T12:25:22.134Z,10.38
2024-03-08T12:26:27.326Z,10.75
2024-03-08T12:27:29.872Z,9.63
2024-03-08T12:28:31.634Z,10.10
2024-03-08T12:29:33.157Z,9.23
2024-03-08T12:30:34.873Z,9.68
2024-03-08T12:31:37.299Z,10.32
2024-03-08T12:32:39.926Z,10.35
2024-03-08T12:33:57.700Z,10.13
2024-03-08T12:34:59.663Z,10.05
2024-03-08T12:36:01.240Z,9.60
2024-03-08T12:37:02.888Z,9.80
2024-03-08T12:38:09.430Z,10.27
2024-03-08T12:39:13.550Z,9.80
2024-03-08T12:40:17.894Z,10.30
2024-03-08T12:41:20.531Z,9.63
2024-03-08T12:42:24.161Z,9.35
2024-03-08T12:43:25.776Z,9.25
2024-03-08T12:44:29.415Z,9.73
2024-03-08T12:45:31.052Z,12.93
2024-03-08T12:46:33.752Z,11.45
2024-03-08T12:47:35.388Z,15.27
2024-03-08T12:48:37.968Z,9.50
2024-03-08T12:49:40.315Z,8.43
2024-03-08T12:50:45.017Z,10.65
2024-03-08T12:51:46.564Z,12.45
2024-03-08T12:52:50.979Z,7.63
2024-03-08T12:53:56.954Z,8.40
2024-03-08T12:54:58.757Z,7.60
2024-03-08T12:56:00.412Z,7.78
2024-03-08T12:57:02.040Z,8.30
2024-03-08T12:58:04.524Z,9.40
2024-03-08T12:59:07.022Z,9.23
2024-03-08T13:00:14.189Z,8.77
2024-03-08T13:01:16.408Z,9.52
2024-03-08T13:02:18.167Z,9.52
2024-03-08T13:03:19.744Z,15.00
2024-03-08T13:04:22.682Z,9.48
2024-03-08T13:05:24.501Z,7.60
2024-03-08T13:06:26.165Z,6.88
2024-03-08T13:07:27.906Z,7.28
2024-03-08T13:08:30.861Z,8.02
2024-03-08T13:09:32.900Z,8.30
2024-03-08T13:10:34.491Z,8.75
2024-03-08T13:11:38.003Z,7.90
2024-03-08T13:12:39.945Z,11.48
2024-03-08T13:13:42.121Z,8.65
2024-03-08T13:14:43.728Z,8.02
2024-03-08T13:15:45.310Z,9.05
2024-03-08T13:16:50.100Z,8.65
2024-03-08T13:17:52.020Z,7.90
2024-03-08T13:18:54.745Z,7.43
2024-03-08T13:19:58.794Z,8.65
2024-03-08T13:21:00.553Z,8.48
2024-03-08T13:22:05.552Z,8.38
2024-03-08T13:23:09.652Z,6.82
2024-03-08T13:24:11.236Z,7.90
2024-03-08T13:25:14.387Z,7.80
2024-03-08T13:26:16.868Z,8.13
2024-03-08T13:27:21.221Z,7.18
2024-03-08T13:28:29.048Z,7.63
2024-03-08T13:29:31.218Z,7.47
2024-03-08T13:30:32.924Z,7.18
2024-03-08T13:31:37.503Z,7.68
2024-03-08T13:32:40.674Z,7.80
2024-03-08T13:33:43.390Z,7.47
2024-03-08T13:34:48.672Z,7.40
2024-03-08T13:35:52.074Z,7.53